sensor_id;sensor_type;location;lat;lon;timestamp;P1;durP1;ratioP1;P2;durP2;ratioP2
64816;SDS011;69411;45.656;11.740;2023-05-07T00:00:42;9.18;;;5.38;;
64816;SDS011;69411;45.656;11.740;2023-05-07T00:03:08;7.57;;;4.82;;
64816;SDS011;69411;45.656;11.740;2023-05-07T00:05:34;5.93;;;4.35;;
64816;SDS011;69411;45.656;11.740;2023-05-07T00:08:00;8.85;;;5.50;;
64816;SDS011;69411;45.656;11.740;2023-05-07T00:10:26;7.82;;;4.80;;
64816;SDS011;69411;45.656;11.740;2023-05-07T00:12:51;6.97;;;4.57;;
64816;SDS011;69411;45.656;11.740;2023-05-07T00:15:18;8.52;;;5.15;;
64816;SDS011;69411;45.656;11.740;2023-05-07T00:17:43;6.35;;;4.47;;
64816;SDS011;69411;45.656;11.740;2023-05-07T00:20:09;6.60;;;4.50;;
64816;SDS011;69411;45.656;11.740;2023-05-07T00:22:36;6.72;;;4.78;;
64816;SDS011;69411;45.656;11.740;2023-05-07T00:25:02;7.38;;;4.68;;
64816;SDS011;69411;45.656;11.740;2023-05-07T00:27:28;6.90;;;4.57;;
64816;SDS011;69411;45.656;11.740;2023-05-07T00:29:54;7.60;;;4.82;;
64816;SDS011;69411;45.656;11.740;2023-05-07T00:32:19;5.80;;;4.40;;
64816;SDS011;69411;45.656;11.740;2023-05-07T00:34:45;7.32;;;5.00;;
64816;SDS011;69411;45.656;11.740;2023-05-07T00:37:12;7.43;;;4.85;;
64816;SDS011;69411;45.656;11.740;2023-05-07T00:39:37;8.77;;;4.82;;
64816;SDS011;69411;45.656;11.740;2023-05-07T00:42:03;8.63;;;5.47;;
64816;SDS011;69411;45.656;11.740;2023-05-07T00:44:29;8.70;;;5.90;;
64816;SDS011;69411;45.656;11.740;2023-05-07T00:46:56;10.85;;;6.75;;
64816;SDS011;69411;45.656;11.740;2023-05-07T00:49:24;9.68;;;6.20;;
64816;SDS011;69411;45.656;11.740;2023-05-07T00:52:01;12.95;;;6.47;;
64816;SDS011;69411;45.656;11.740;2023-05-07T00:54:27;9.45;;;6.68;;
64816;SDS011;69411;45.656;11.740;2023-05-07T00:56:53;10.82;;;5.78;;
64816;SDS011;69411;45.656;11.740;2023-05-07T00:59:20;8.57;;;5.80;;
64816;SDS011;69411;45.656;11.740;2023-05-07T01:01:46;9.27;;;6.07;;
64816;SDS011;69411;45.656;11.740;2023-05-07T01:04:12;9.80;;;6.40;;
64816;SDS011;69411;45.656;11.740;2023-05-07T01:06:38;10.45;;;7.00;;
64816;SDS011;69411;45.656;11.740;2023-05-07T01:09:05;9.30;;;6.07;;
64816;SDS011;69411;45.656;11.740;2023-05-07T01:11:31;10.48;;;6.50;;
64816;SDS011;69411;45.656;11.740;2023-05-07T01:13:57;10.05;;;6.18;;
64816;SDS011;69411;45.656;11.740;2023-05-07T01:16:24;8.68;;;6.15;;
64816;SDS011;69411;45.656;11.740;2023-05-07T01:18:50;9.30;;;6.30;;
64816;SDS011;69411;45.656;11.740;2023-05-07T01:21:16;11.45;;;6.68;;
64816;SDS011;69411;45.656;11.740;2023-05-07T01:23:44;10.88;;;6.22;;
64816;SDS011;69411;45.656;11.740;2023-05-07T01:26:11;11.10;;;6.22;;
64816;SDS011;69411;45.656;11.740;2023-05-07T01:28:37;9.57;;;6.72;;
64816;SDS011;69411;45.656;11.740;2023-05-07T01:31:03;12.85;;;7.30;;
64816;SDS011;69411;45.656;11.740;2023-05-07T01:33:31;9.18;;;6.30;;
64816;SDS011;69411;45.656;11.740;2023-05-07T01:36:00;10.77;;;8.15;;
64816;SDS011;69411;45.656;11.740;2023-05-07T01:38:28;11.60;;;8.00;;
64816;SDS011;69411;45.656;11.740;2023-05-07T01:40:55;11.50;;;7.57;;
64816;SDS011;69411;45.656;11.740;2023-05-07T01:43:21;10.57;;;7.45;;
64816;SDS011;69411;45.656;11.740;2023-05-07T01:45:47;10.23;;;7.30;;
64816;SDS011;69411;45.656;11.740;2023-05-07T01:48:14;10.80;;;7.30;;
64816;SDS011;69411;45.656;11.740;2023-05-07T01:50:41;9.27;;;6.88;;
64816;SDS011;69411;45.656;11.740;2023-05-07T01:53:08;9.18;;;6.15;;
64816;SDS011;69411;45.656;11.740;2023-05-07T01:55:35;9.38;;;6.70;;
64816;SDS011;69411;45.656;11.740;2023-05-07T01:58:02;10.13;;;7.65;;
64816;SDS011;69411;45.656;11.740;2023-05-07T02:00:28;12.93;;;8.63;;
64816;SDS011;69411;45.656;11.740;2023-05-07T02:02:54;11.30;;;8.15;;
64816;SDS011;69411;45.656;11.740;2023-05-07T02:05:20;10.70;;;7.47;;
64816;SDS011;69411;45.656;11.740;2023-05-07T02:07:46;12.02;;;7.72;;
64816;SDS011;69411;45.656;11.740;2023-05-07T02:10:12;11.55;;;8.15;;
64816;SDS011;69411;45.656;11.740;2023-05-07T02:12:38;10.70;;;7.65;;
64816;SDS011;69411;45.656;11.740;2023-05-07T02:15:04;11.35;;;8.13;;
64816;SDS011;69411;45.656;11.740;2023-05-07T02:17:31;11.85;;;8.18;;
64816;SDS011;69411;45.656;11.740;2023-05-07T02:19:58;11.82;;;7.95;;
64816;SDS011;69411;45.656;11.740;2023-05-07T02:22:24;10.07;;;7.57;;
64816;SDS011;69411;45.656;11.740;2023-05-07T02:24:50;12.73;;;9.00;;
64816;SDS011;69411;45.656;11.740;2023-05-07T02:27:16;13.48;;;9.52;;
64816;SDS011;69411;45.656;11.740;2023-05-07T02:29:42;12.75;;;8.50;;
64816;SDS011;69411;45.656;11.740;2023-05-07T02:32:08;15.48;;;10.95;;
64816;SDS011;69411;45.656;11.740;2023-05-07T02:34:34;12.95;;;8.63;;
64816;SDS011;69411;45.656;11.740;2023-05-07T02:37:00;12.45;;;8.52;;
64816;SDS011;69411;45.656;11.740;2023-05-07T02:39:26;12.35;;;8.40;;
64816;SDS011;69411;45.656;11.740;2023-05-07T02:41:52;10.10;;;6.75;;
64816;SDS011;69411;45.656;11.740;2023-05-07T02:44:18;10.45;;;6.43;;
64816;SDS011;69411;45.656;11.740;2023-05-07T02:46:44;11.90;;;7.90;;
64816;SDS011;69411;45.656;11.740;2023-05-07T02:49:10;12.55;;;7.78;;
64816;SDS011;69411;45.656;11.740;2023-05-07T02:51:36;10.95;;;7.10;;
64816;SDS011;69411;45.656;11.740;2023-05-07T02:54:02;9.70;;;6.53;;
64816;SDS011;69411;45.656;11.740;2023-05-07T02:56:28;10.20;;;6.82;;
64816;SDS011;69411;45.656;11.740;2023-05-07T02:58:54;12.50;;;7.30;;
64816;SDS011;69411;45.656;11.740;2023-05-07T03:01:20;9.18;;;6.22;;
64816;SDS011;69411;45.656;11.740;2023-05-07T03:03:46;10.02;;;5.90;;
64816;SDS011;69411;45.656;11.740;2023-05-07T03:06:11;9.13;;;6.18;;
64816;SDS011;69411;45.656;11.740;2023-05-07T03:08:38;8.63;;;5.90;;
64816;SDS011;69411;45.656;11.740;2023-05-07T03:11:03;9.32;;;6.43;;
64816;SDS011;69411;45.656;11.740;2023-05-07T03:13:30;9.40;;;6.07;;
64816;SDS011;69411;45.656;11.740;2023-05-07T03:15:55;9.40;;;6.28;;
64816;SDS011;69411;45.656;11.740;2023-05-07T03:18:21;8.07;;;5.82;;
64816;SDS011;69411;45.656;11.740;2023-05-07T03:20:48;10.80;;;6.88;;
64816;SDS011;69411;45.656;11.740;2023-05-07T03:23:14;8.00;;;5.70;;
64816;SDS011;69411;45.656;11.740;2023-05-07T03:25:40;10.23;;;6.82;;
64816;SDS011;69411;45.656;11.740;2023-05-07T03:28:06;9.45;;;6.80;;
64816;SDS011;69411;45.656;11.740;2023-05-07T03:30:32;8.90;;;6.20;;
64816;SDS011;69411;45.656;11.740;2023-05-07T03:32:58;9.32;;;6.80;;
64816;SDS011;69411;45.656;11.740;2023-05-07T03:35:24;9.23;;;6.55;;
64816;SDS011;69411;45.656;11.740;2023-05-07T03:37:50;9.02;;;6.00;;
64816;SDS011;69411;45.656;11.740;2023-05-07T03:40:16;9.82;;;6.38;;
64816;SDS011;69411;45.656;11.740;2023-05-07T03:42:42;11.15;;;7.68;;
64816;SDS011;69411;45.656;11.740;2023-05-07T03:45:08;10.85;;;6.78;;
64816;SDS011;69411;45.656;11.740;2023-05-07T03:47:34;10.55;;;7.38;;
64816;SDS011;69411;45.656;11.740;2023-05-07T03:50:00;11.23;;;7.57;;
64816;SDS011;69411;45.656;11.740;2023-05-07T03:52:26;11.90;;;8.50;;
64816;SDS011;69411;45.656;11.740;2023-05-07T03:54:52;11.13;;;6.60;;
64816;SDS011;69411;45.656;11.740;2023-05-07T03:57:19;11.60;;;7.45;;
64816;SDS011;69411;45.656;11.740;2023-05-07T03:59:45;9.65;;;7.00;;
64816;SDS011;69411;45.656;11.740;2023-05-07T04:02:11;10.30;;;7.43;;
64816;SDS011;69411;45.656;11.740;2023-05-07T04:04:37;14.85;;;9.00;;
64816;SDS011;69411;45.656;11.740;2023-05-07T04:07:03;10.63;;;7.35;;
64816;SDS011;69411;45.656;11.740;2023-05-07T04:09:29;10.68;;;7.28;;
64816;SDS011;69411;45.656;11.740;2023-05-07T04:11:55;10.93;;;7.70;;
64816;SDS011;69411;45.656;11.740;2023-05-07T04:14:21;11.60;;;7.95;;
64816;SDS011;69411;45.656;11.740;2023-05-07T04:16:47;10.50;;;7.07;;
64816;SDS011;69411;45.656;11.740;2023-05-07T04:19:13;8.88;;;6.65;;
64816;SDS011;69411;45.656;11.740;2023-05-07T04:21:39;9.68;;;6.95;;
64816;SDS011;69411;45.656;11.740;2023-05-07T04:24:05;10.82;;;6.90;;
64816;SDS011;69411;45.656;11.740;2023-05-07T04:26:31;8.77;;;6.20;;
64816;SDS011;69411;45.656;11.740;2023-05-07T04:28:57;9.95;;;6.25;;
64816;SDS011;69411;45.656;11.740;2023-05-07T04:31:24;10.10;;;7.10;;
64816;SDS011;69411;45.656;11.740;2023-05-07T04:33:50;11.15;;;6.90;;
64816;SDS011;69411;45.656;11.740;2023-05-07T04:36:16;10.52;;;7.32;;
64816;SDS011;69411;45.656;11.740;2023-05-07T04:38:42;10.40;;;7.05;;
64816;SDS011;69411;45.656;11.740;2023-05-07T04:41:08;11.18;;;6.97;;
64816;SDS011;69411;45.656;11.740;2023-05-07T04:43:35;10.35;;;7.07;;
64816;SDS011;69411;45.656;11.740;2023-05-07T04:46:01;10.82;;;7.45;;
64816;SDS011;69411;45.656;11.740;2023-05-07T04:48:27;13.80;;;7.90;;
64816;SDS011;69411;45.656;11.740;2023-05-07T04:50:54;14.50;;;7.95;;
64816;SDS011;69411;45.656;11.740;2023-05-07T04:53:20;12.25;;;7.45;;
64816;SDS011;69411;45.656;11.740;2023-05-07T04:55:46;10.57;;;7.25;;
64816;SDS011;69411;45.656;11.740;2023-05-07T04:58:12;9.55;;;7.00;;
64816;SDS011;69411;45.656;11.740;2023-05-07T05:00:39;11.60;;;7.72;;
64816;SDS011;69411;45.656;11.740;2023-05-07T05:03:06;12.05;;;7.57;;
64816;SDS011;69411;45.656;11.740;2023-05-07T05:05:33;9.65;;;7.07;;
64816;SDS011;69411;45.656;11.740;2023-05-07T05:07:59;10.23;;;7.13;;
64816;SDS011;69411;45.656;11.740;2023-05-07T05:10:25;11.43;;;7.43;;
64816;SDS011;69411;45.656;11.740;2023-05-07T05:12:51;9.77;;;6.95;;
64816;SDS011;69411;45.656;11.740;2023-05-07T05:15:17;9.25;;;7.05;;
64816;SDS011;69411;45.656;11.740;2023-05-07T05:17:43;11.00;;;6.82;;
64816;SDS011;69411;45.656;11.740;2023-05-07T05:20:09;13.43;;;9.25;;
64816;SDS011;69411;45.656;11.740;2023-05-07T05:22:38;9.88;;;6.80;;
64816;SDS011;69411;45.656;11.740;2023-05-07T05:25:04;10.93;;;7.32;;
64816;SDS011;69411;45.656;11.740;2023-05-07T05:27:30;12.75;;;7.85;;
64816;SDS011;69411;45.656;11.740;2023-05-07T05:29:56;11.65;;;7.40;;
64816;SDS011;69411;45.656;11.740;2023-05-07T05:32:22;9.90;;;7.20;;
64816;SDS011;69411;45.656;11.740;2023-05-07T05:34:48;12.02;;;7.78;;
64816;SDS011;69411;45.656;11.740;2023-05-07T05:37:14;14.32;;;9.02;;
64816;SDS011;69411;45.656;11.740;2023-05-07T05:39:40;12.75;;;10.05;;
64816;SDS011;69411;45.656;11.740;2023-05-07T05:42:07;13.40;;;9.85;;
64816;SDS011;69411;45.656;11.740;2023-05-07T05:44:33;15.50;;;11.13;;
64816;SDS011;69411;45.656;11.740;2023-05-07T05:46:59;12.73;;;9.63;;
64816;SDS011;69411;45.656;11.740;2023-05-07T05:49:25;15.18;;;9.48;;
64816;SDS011;69411;45.656;11.740;2023-05-07T05:51:51;11.88;;;9.00;;
64816;SDS011;69411;45.656;11.740;2023-05-07T05:54:17;10.15;;;8.25;;
64816;SDS011;69411;45.656;11.740;2023-05-07T05:56:43;14.02;;;9.60;;
64816;SDS011;69411;45.656;11.740;2023-05-07T05:59:09;11.57;;;9.13;;
64816;SDS011;69411;45.656;11.740;2023-05-07T06:01:37;12.63;;;9.45;;
64816;SDS011;69411;45.656;11.740;2023-05-07T06:04:04;11.55;;;8.95;;
64816;SDS011;69411;45.656;11.740;2023-05-07T06:06:30;12.18;;;9.68;;
64816;SDS011;69411;45.656;11.740;2023-05-07T06:08:57;11.10;;;8.75;;
64816;SDS011;69411;45.656;11.740;2023-05-07T06:11:23;11.07;;;8.68;;
64816;SDS011;69411;45.656;11.740;2023-05-07T06:13:48;9.25;;;6.95;;
64816;SDS011;69411;45.656;11.740;2023-05-07T06:16:15;10.00;;;7.35;;
64816;SDS011;69411;45.656;11.740;2023-05-07T06:18:41;14.77;;;7.75;;
64816;SDS011;69411;45.656;11.740;2023-05-07T06:21:07;9.25;;;7.18;;
64816;SDS011;69411;45.656;11.740;2023-05-07T06:23:33;9.07;;;6.75;;
64816;SDS011;69411;45.656;11.740;2023-05-07T06:25:59;10.23;;;6.63;;
64816;SDS011;69411;45.656;11.740;2023-05-07T06:28:24;8.02;;;6.28;;
64816;SDS011;69411;45.656;11.740;2023-05-07T06:30:50;7.35;;;6.10;;
64816;SDS011;69411;45.656;11.740;2023-05-07T06:33:16;7.80;;;5.82;;
64816;SDS011;69411;45.656;11.740;2023-05-07T06:35:42;8.27;;;6.13;;
64816;SDS011;69411;45.656;11.740;2023-05-07T06:38:08;7.55;;;5.70;;
64816;SDS011;69411;45.656;11.740;2023-05-07T06:40:34;7.30;;;5.80;;
64816;SDS011;69411;45.656;11.740;2023-05-07T06:43:00;8.07;;;5.97;;
64816;SDS011;69411;45.656;11.740;2023-05-07T06:45:26;6.88;;;5.55;;
64816;SDS011;69411;45.656;11.740;2023-05-07T06:47:52;7.93;;;5.30;;
64816;SDS011;69411;45.656;11.740;2023-05-07T06:50:18;7.07;;;5.28;;
64816;SDS011;69411;45.656;11.740;2023-05-07T06:52:44;6.28;;;5.05;;
64816;SDS011;69411;45.656;11.740;2023-05-07T06:55:10;7.93;;;5.10;;
64816;SDS011;69411;45.656;11.740;2023-05-07T06:57:36;9.02;;;5.28;;
64816;SDS011;69411;45.656;11.740;2023-05-07T07:00:03;6.70;;;5.20;;
64816;SDS011;69411;45.656;11.740;2023-05-07T07:02:32;8.82;;;5.70;;
64816;SDS011;69411;45.656;11.740;2023-05-07T07:04:58;6.95;;;5.25;;
64816;SDS011;69411;45.656;11.740;2023-05-07T07:07:24;7.97;;;5.68;;
64816;SDS011;69411;45.656;11.740;2023-05-07T07:09:50;8.80;;;5.82;;
64816;SDS011;69411;45.656;11.740;2023-05-07T07:12:16;8.55;;;5.75;;
64816;SDS011;69411;45.656;11.740;2023-05-07T07:14:42;7.85;;;6.18;;
64816;SDS011;69411;45.656;11.740;2023-05-07T07:17:08;9.05;;;5.70;;
64816;SDS011;69411;45.656;11.740;2023-05-07T07:19:35;8.07;;;5.95;;
64816;SDS011;69411;45.656;11.740;2023-05-07T07:22:01;7.18;;;5.68;;
64816;SDS011;69411;45.656;11.740;2023-05-07T07:24:26;6.88;;;5.60;;
64816;SDS011;69411;45.656;11.740;2023-05-07T07:26:52;8.13;;;6.35;;
64816;SDS011;69411;45.656;11.740;2023-05-07T07:29:20;8.00;;;5.68;;
64816;SDS011;69411;45.656;11.740;2023-05-07T07:31:47;7.93;;;5.60;;
64816;SDS011;69411;45.656;11.740;2023-05-07T07:34:15;8.77;;;6.88;;
64816;SDS011;69411;45.656;11.740;2023-05-07T07:36:41;7.80;;;5.65;;
64816;SDS011;69411;45.656;11.740;2023-05-07T07:39:07;9.10;;;6.18;;
64816;SDS011;69411;45.656;11.740;2023-05-07T07:41:33;8.43;;;6.70;;
64816;SDS011;69411;45.656;11.740;2023-05-07T07:43:59;8.88;;;6.80;;
64816;SDS011;69411;45.656;11.740;2023-05-07T07:46:25;8.13;;;6.40;;
64816;SDS011;69411;45.656;11.740;2023-05-07T07:48:51;9.98;;;6.85;;
64816;SDS011;69411;45.656;11.740;2023-05-07T07:51:17;10.98;;;7.47;;
64816;SDS011;69411;45.656;11.740;2023-05-07T07:53:43;10.63;;;7.35;;
64816;SDS011;69411;45.656;11.740;2023-05-07T07:56:09;10.18;;;7.38;;
64816;SDS011;69411;45.656;11.740;2023-05-07T07:58:35;10.05;;;7.80;;
64816;SDS011;69411;45.656;11.740;2023-05-07T08:01:03;9.35;;;6.95;;
64816;SDS011;69411;45.656;11.740;2023-05-07T08:03:29;10.77;;;7.88;;
64816;SDS011;69411;45.656;11.740;2023-05-07T08:05:57;10.73;;;7.72;;
64816;SDS011;69411;45.656;11.740;2023-05-07T08:08:23;8.68;;;7.07;;
64816;SDS011;69411;45.656;11.740;2023-05-07T08:10:49;9.73;;;6.82;;
64816;SDS011;69411;45.656;11.740;2023-05-07T08:13:15;10.43;;;7.28;;
64816;SDS011;69411;45.656;11.740;2023-05-07T08:15:42;9.65;;;7.40;;
64816;SDS011;69411;45.656;11.740;2023-05-07T08:18:08;10.70;;;8.05;;
64816;SDS011;69411;45.656;11.740;2023-05-07T08:20:35;12.30;;;8.48;;
64816;SDS011;69411;45.656;11.740;2023-05-07T08:23:04;10.32;;;7.63;;
64816;SDS011;69411;45.656;11.740;2023-05-07T08:25:35;10.30;;;7.78;;
64816;SDS011;69411;45.656;11.740;2023-05-07T08:28:01;10.40;;;8.13;;
64816;SDS011;69411;45.656;11.740;2023-05-07T08:30:28;10.75;;;8.05;;
64816;SDS011;69411;45.656;11.740;2023-05-07T08:32:54;10.02;;;7.43;;
64816;SDS011;69411;45.656;11.740;2023-05-07T08:35:20;9.77;;;7.78;;
64816;SDS011;69411;45.656;11.740;2023-05-07T08:37:46;10.55;;;7.45;;
64816;SDS011;69411;45.656;11.740;2023-05-07T08:40:12;9.40;;;6.97;;
64816;SDS011;69411;45.656;11.740;2023-05-07T08:42:37;10.75;;;7.03;;
64816;SDS011;69411;45.656;11.740;2023-05-07T08:45:09;8.32;;;6.43;;
64816;SDS011;69411;45.656;11.740;2023-05-07T08:47:40;8.90;;;7.15;;
64816;SDS011;69411;45.656;11.740;2023-05-07T08:50:12;10.73;;;7.00;;
64816;SDS011;69411;45.656;11.740;2023-05-07T08:52:41;9.15;;;6.75;;
64816;SDS011;69411;45.656;11.740;2023-05-07T08:55:07;10.10;;;7.15;;
64816;SDS011;69411;45.656;11.740;2023-05-07T08:57:34;11.48;;;7.93;;
64816;SDS011;69411;45.656;11.740;2023-05-07T09:00:00;9.85;;;7.63;;
64816;SDS011;69411;45.656;11.740;2023-05-07T09:02:28;11.73;;;7.90;;
64816;SDS011;69411;45.656;11.740;2023-05-07T09:04:54;10.45;;;7.93;;
64816;SDS011;69411;45.656;11.740;2023-05-07T09:07:20;10.52;;;8.05;;
64816;SDS011;69411;45.656;11.740;2023-05-07T09:09:47;10.13;;;7.63;;
64816;SDS011;69411;45.656;11.740;2023-05-07T09:12:13;9.95;;;7.38;;
64816;SDS011;69411;45.656;11.740;2023-05-07T09:14:39;6.38;;;5.20;;
64816;SDS011;69411;45.656;11.740;2023-05-07T09:17:05;5.28;;;4.10;;
64816;SDS011;69411;45.656;11.740;2023-05-07T09:19:31;5.90;;;4.10;;
64816;SDS011;69411;45.656;11.740;2023-05-07T09:21:57;5.03;;;4.18;;
64816;SDS011;69411;45.656;11.740;2023-05-07T09:24:25;5.50;;;3.58;;
64816;SDS011;69411;45.656;11.740;2023-05-07T09:26:51;5.97;;;4.68;;
64816;SDS011;69411;45.656;11.740;2023-05-07T09:29:16;4.85;;;4.10;;
64816;SDS011;69411;45.656;11.740;2023-05-07T09:31:43;6.85;;;3.80;;
64816;SDS011;69411;45.656;11.740;2023-05-07T09:34:09;5.40;;;3.78;;
64816;SDS011;69411;45.656;11.740;2023-05-07T09:36:35;4.45;;;3.83;;
64816;SDS011;69411;45.656;11.740;2023-05-07T09:39:01;4.53;;;3.63;;
64816;SDS011;69411;45.656;11.740;2023-05-07T09:41:27;4.00;;;3.50;;
64816;SDS011;69411;45.656;11.740;2023-05-07T09:43:57;4.25;;;3.75;;
64816;SDS011;69411;45.656;11.740;2023-05-07T09:46:32;6.20;;;4.50;;
64816;SDS011;69411;45.656;11.740;2023-05-07T09:49:01;4.70;;;3.83;;
64816;SDS011;69411;45.656;11.740;2023-05-07T09:51:36;4.82;;;3.80;;
64816;SDS011;69411;45.656;11.740;2023-05-07T09:54:06;4.70;;;4.07;;
64816;SDS011;69411;45.656;11.740;2023-05-07T09:56:33;6.00;;;3.92;;
64816;SDS011;69411;45.656;11.740;2023-05-07T09:59:00;5.40;;;4.28;;
64816;SDS011;69411;45.656;11.740;2023-05-07T10:01:26;6.35;;;4.13;;
64816;SDS011;69411;45.656;11.740;2023-05-07T10:03:53;6.72;;;4.40;;
64816;SDS011;69411;45.656;11.740;2023-05-07T10:06:20;9.10;;;4.35;;
64816;SDS011;69411;45.656;11.740;2023-05-07T10:08:47;6.57;;;4.78;;
64816;SDS011;69411;45.656;11.740;2023-05-07T10:11:14;7.75;;;5.22;;
64816;SDS011;69411;45.656;11.740;2023-05-07T10:13:41;7.70;;;5.05;;
64816;SDS011;69411;45.656;11.740;2023-05-07T10:16:07;6.40;;;4.60;;
64816;SDS011;69411;45.656;11.740;2023-05-07T10:18:34;5.85;;;4.45;;
64816;SDS011;69411;45.656;11.740;2023-05-07T10:21:17;6.78;;;4.30;;
64816;SDS011;69411;45.656;11.740;2023-05-07T10:23:45;9.40;;;5.45;;
64816;SDS011;69411;45.656;11.740;2023-05-07T10:26:13;6.22;;;4.60;;
64816;SDS011;69411;45.656;11.740;2023-05-07T10:28:42;6.90;;;5.32;;
64816;SDS011;69411;45.656;11.740;2023-05-07T10:33:55;8.02;;;5.30;;
64816;SDS011;69411;45.656;11.740;2023-05-07T10:36:23;6.38;;;4.35;;
64816;SDS011;69411;45.656;11.740;2023-05-07T10:38:50;5.85;;;4.75;;
64816;SDS011;69411;45.656;11.740;2023-05-07T10:41:16;5.82;;;4.50;;
64816;SDS011;69411;45.656;11.740;2023-05-07T10:43:44;6.13;;;4.93;;
64816;SDS011;69411;45.656;11.740;2023-05-07T10:46:20;5.57;;;4.60;;
64816;SDS011;69411;45.656;11.740;2023-05-07T10:51:30;5.75;;;4.53;;
64816;SDS011;69411;45.656;11.740;2023-05-07T10:56:38;8.48;;;5.57;;
64816;SDS011;69411;45.656;11.740;2023-05-07T11:01:56;8.57;;;5.95;;
64816;SDS011;69411;45.656;11.740;2023-05-07T11:04:23;7.85;;;6.10;;
64816;SDS011;69411;45.656;11.740;2023-05-07T11:12:16;11.00;;;6.75;;
64816;SDS011;69411;45.656;11.740;2023-05-07T11:15:08;8.05;;;5.63;;
64816;SDS011;69411;45.656;11.740;2023-05-07T11:20:44;9.38;;;6.35;;
64816;SDS011;69411;45.656;11.740;2023-05-07T11:26:08;11.77;;;8.57;;
64816;SDS011;69411;45.656;11.740;2023-05-07T11:28:36;10.57;;;8.55;;
64816;SDS011;69411;45.656;11.740;2023-05-07T11:31:04;10.18;;;7.38;;
64816;SDS011;69411;45.656;11.740;2023-05-07T11:33:30;9.45;;;7.10;;
64816;SDS011;69411;45.656;11.740;2023-05-07T11:35:57;9.82;;;7.90;;
64816;SDS011;69411;45.656;11.740;2023-05-07T11:38:24;9.50;;;7.70;;
64816;SDS011;69411;45.656;11.740;2023-05-07T11:40:51;9.00;;;6.72;;
64816;SDS011;69411;45.656;11.740;2023-05-07T11:43:17;9.43;;;7.38;;
64816;SDS011;69411;45.656;11.740;2023-05-07T11:45:47;9.32;;;7.00;;
64816;SDS011;69411;45.656;11.740;2023-05-07T11:48:14;11.02;;;8.95;;
64816;SDS011;69411;45.656;11.740;2023-05-07T11:53:25;13.25;;;10.40;;
64816;SDS011;69411;45.656;11.740;2023-05-07T11:55:57;12.85;;;9.85;;
64816;SDS011;69411;45.656;11.740;2023-05-07T11:58:23;11.82;;;9.45;;
64816;SDS011;69411;45.656;11.740;2023-05-07T12:00:51;13.60;;;8.75;;
64816;SDS011;69411;45.656;11.740;2023-05-07T12:03:18;14.30;;;10.18;;
64816;SDS011;69411;45.656;11.740;2023-05-07T12:05:44;10.55;;;8.77;;
64816;SDS011;69411;45.656;11.740;2023-05-07T12:08:14;11.77;;;8.80;;
64816;SDS011;69411;45.656;11.740;2023-05-07T12:10:42;9.32;;;7.15;;
64816;SDS011;69411;45.656;11.740;2023-05-07T12:13:41;10.50;;;8.40;;
64816;SDS011;69411;45.656;11.740;2023-05-07T12:16:00;14.55;;;8.63;;
64816;SDS011;69411;45.656;11.740;2023-05-07T12:18:28;11.80;;;8.80;;
64816;SDS011;69411;45.656;11.740;2023-05-07T12:20:55;9.73;;;7.45;;
64816;SDS011;69411;45.656;11.740;2023-05-07T12:23:21;10.35;;;7.90;;
64816;SDS011;69411;45.656;11.740;2023-05-07T12:25:47;11.65;;;9.70;;
64816;SDS011;69411;45.656;11.740;2023-05-07T12:28:14;10.43;;;8.30;;
64816;SDS011;69411;45.656;11.740;2023-05-07T12:30:42;13.38;;;9.30;;
64816;SDS011;69411;45.656;11.740;2023-05-07T12:33:12;11.85;;;8.77;;
64816;SDS011;69411;45.656;11.740;2023-05-07T12:35:42;12.52;;;8.50;;
64816;SDS011;69411;45.656;11.740;2023-05-07T12:38:09;12.73;;;9.73;;
64816;SDS011;69411;45.656;11.740;2023-05-07T12:40:40;12.25;;;9.23;;
64816;SDS011;69411;45.656;11.740;2023-05-07T12:43:07;10.38;;;8.10;;
64816;SDS011;69411;45.656;11.740;2023-05-07T12:45:41;10.88;;;8.23;;
64816;SDS011;69411;45.656;11.740;2023-05-07T12:48:09;11.85;;;8.85;;
64816;SDS011;69411;45.656;11.740;2023-05-07T12:50:35;11.63;;;8.50;;
64816;SDS011;69411;45.656;11.740;2023-05-07T12:53:03;13.07;;;10.07;;
64816;SDS011;69411;45.656;11.740;2023-05-07T12:55:47;12.30;;;9.57;;
64816;SDS011;69411;45.656;11.740;2023-05-07T12:58:21;10.10;;;7.80;;
64816;SDS011;69411;45.656;11.740;2023-05-07T13:00:49;12.70;;;8.57;;
64816;SDS011;69411;45.656;11.740;2023-05-07T13:08:28;11.27;;;8.20;;
64816;SDS011;69411;45.656;11.740;2023-05-07T13:10:54;10.13;;;7.78;;
64816;SDS011;69411;45.656;11.740;2023-05-07T13:13:20;11.25;;;8.60;;
64816;SDS011;69411;45.656;11.740;2023-05-07T13:15:47;11.07;;;8.63;;
64816;SDS011;69411;45.656;11.740;2023-05-07T13:18:13;11.07;;;7.97;;
64816;SDS011;69411;45.656;11.740;2023-05-07T13:20:39;11.05;;;7.82;;
64816;SDS011;69411;45.656;11.740;2023-05-07T13:23:05;11.07;;;7.57;;
64816;SDS011;69411;45.656;11.740;2023-05-07T13:25:31;10.50;;;7.70;;
64816;SDS011;69411;45.656;11.740;2023-05-07T13:27:57;10.73;;;8.20;;
64816;SDS011;69411;45.656;11.740;2023-05-07T13:30:23;9.48;;;7.40;;
64816;SDS011;69411;45.656;11.740;2023-05-07T13:32:49;10.27;;;7.95;;
64816;SDS011;69411;45.656;11.740;2023-05-07T13:35:17;8.68;;;6.63;;
64816;SDS011;69411;45.656;11.740;2023-05-07T13:37:43;10.48;;;6.97;;
64816;SDS011;69411;45.656;11.740;2023-05-07T13:40:09;10.02;;;6.93;;
64816;SDS011;69411;45.656;11.740;2023-05-07T13:42:35;9.95;;;7.60;;
64816;SDS011;69411;45.656;11.740;2023-05-07T13:45:01;9.07;;;7.72;;
64816;SDS011;69411;45.656;11.740;2023-05-07T13:47:30;8.63;;;6.43;;
64816;SDS011;69411;45.656;11.740;2023-05-07T13:49:56;8.27;;;6.53;;
64816;SDS011;69411;45.656;11.740;2023-05-07T13:52:22;9.55;;;6.65;;
64816;SDS011;69411;45.656;11.740;2023-05-07T13:54:47;8.65;;;6.85;;
64816;SDS011;69411;45.656;11.740;2023-05-07T13:57:13;11.45;;;9.02;;
64816;SDS011;69411;45.656;11.740;2023-05-07T13:59:40;10.70;;;7.88;;
64816;SDS011;69411;45.656;11.740;2023-05-07T14:02:06;10.65;;;8.27;;
64816;SDS011;69411;45.656;11.740;2023-05-07T14:04:32;11.10;;;7.63;;
64816;SDS011;69411;45.656;11.740;2023-05-07T14:06:57;12.05;;;8.00;;
64816;SDS011;69411;45.656;11.740;2023-05-07T14:09:23;11.48;;;8.63;;
64816;SDS011;69411;45.656;11.740;2023-05-07T14:11:49;10.57;;;8.15;;
64816;SDS011;69411;45.656;11.740;2023-05-07T14:14:17;11.00;;;7.97;;
64816;SDS011;69411;45.656;11.740;2023-05-07T14:16:43;10.40;;;8.05;;
64816;SDS011;69411;45.656;11.740;2023-05-07T14:19:11;9.50;;;7.80;;
64816;SDS011;69411;45.656;11.740;2023-05-07T14:21:37;10.20;;;6.97;;
64816;SDS011;69411;45.656;11.740;2023-05-07T14:24:03;11.05;;;7.65;;
64816;SDS011;69411;45.656;11.740;2023-05-07T14:26:31;11.25;;;8.32;;
64816;SDS011;69411;45.656;11.740;2023-05-07T14:28:57;12.38;;;8.85;;
64816;SDS011;69411;45.656;11.740;2023-05-07T14:31:23;10.57;;;8.02;;
64816;SDS011;69411;45.656;11.740;2023-05-07T14:33:50;10.70;;;8.20;;
64816;SDS011;69411;45.656;11.740;2023-05-07T14:36:17;9.35;;;7.35;;
64816;SDS011;69411;45.656;11.740;2023-05-07T14:38:45;12.02;;;9.18;;
64816;SDS011;69411;45.656;11.740;2023-05-07T14:41:11;10.45;;;6.93;;
64816;SDS011;69411;45.656;11.740;2023-05-07T14:43:37;9.25;;;6.82;;
64816;SDS011;69411;45.656;11.740;2023-05-07T14:46:04;8.63;;;7.00;;
64816;SDS011;69411;45.656;11.740;2023-05-07T14:48:30;8.70;;;6.70;;
64816;SDS011;69411;45.656;11.740;2023-05-07T14:50:55;8.85;;;6.88;;
64816;SDS011;69411;45.656;11.740;2023-05-07T14:53:21;10.25;;;7.90;;
64816;SDS011;69411;45.656;11.740;2023-05-07T14:55:48;11.75;;;8.52;;